Time;durP1;ratioP1;P1;durP2;ratioP2;P2;SDS_P1;SDS_P2;PMS_P1;PMS_P2;Temp;Humidity;BMP_temperature;BMP_pressure;BME280_temperature;BME280_humidity;BME280_pressure;Samples;Min_cycle;Max_cycle;Signal;HPM_P1;HPM_P2
2022/09/08 00:02:02;;;;;;;12.98;6.03;;;;;;;14.85;100.00;100982.88;5076669;28;20378;-84
2022/09/08 00:04:28;;;;;;;12.82;6.25;;;;;;;14.86;100.00;100983.75;5094042;28;20028;-84
2022/09/08 00:06:53;;;;;;;15.95;6.68;;;;;;;14.87;100.00;100986.25;5094797;28;20093;-85
2022/09/08 00:09:19;;;;;;;17.17;7.80;;;;;;;14.88;100.00;100979.03;5094731;28;20410;-85
2022/09/08 00:11:45;;;;;;;15.77;7.05;;;;;;;14.91;100.00;100974.22;5093649;28;20042;-85
2022/09/08 00:14:11;;;;;;;16.52;6.88;;;;;;;14.90;100.00;100974.34;5095714;28;20059;-85
2022/09/08 00:16:39;;;;;;;14.13;6.72;;;;;;;14.89;100.00;100970.84;5097135;28;20110;-85
2022/09/08 00:19:05;;;;;;;17.83;6.93;;;;;;;14.88;100.00;100968.34;5096482;28;20035;-85
2022/09/08 00:21:30;;;;;;;14.32;6.82;;;;;;;14.89;100.00;100970.03;5096899;28;20535;-86
2022/09/08 00:23:56;;;;;;;14.00;6.00;;;;;;;14.87;100.00;100967.50;5096474;28;20024;-85
2022/09/08 00:26:21;;;;;;;12.60;7.07;;;;;;;14.87;100.00;100964.81;5096464;28;20189;-85
2022/09/08 00:28:48;;;;;;;20.05;7.60;;;;;;;14.87;100.00;100956.78;5096347;28;20036;-85
2022/09/08 00:31:13;;;;;;;17.83;7.43;;;;;;;14.85;100.00;100961.44;5097190;28;20036;-85
2022/09/08 00:33:39;;;;;;;16.17;7.53;;;;;;;14.85;100.00;100958.78;5078329;28;20040;-85
2022/09/08 00:36:04;;;;;;;16.92;6.80;;;;;;;14.84;100.00;100961.63;5096860;28;20536;-85
2022/09/08 00:38:31;;;;;;;13.30;6.68;;;;;;;14.79;100.00;100952.25;5096340;28;20495;-86
2022/09/08 00:40:58;;;;;;;12.27;6.50;;;;;;;14.76;100.00;100946.38;5096606;28;20039;-86
2022/09/08 00:43:32;;;;;;;14.35;7.10;;;;;;;14.70;100.00;100944.34;5096493;28;20125;-86
2022/09/08 00:46:04;;;;;;;16.75;6.88;;;;;;;14.64;100.00;100937.81;5078675;28;20055;-89
2022/09/08 00:48:31;;;;;;;13.82;7.15;;;;;;;14.56;100.00;100925.22;5096597;28;20032;-86
2022/09/08 00:50:58;;;;;;;14.32;7.72;;;;;;;14.52;100.00;100926.53;5079268;28;20036;-87
2022/09/08 00:53:25;;;;;;;16.50;7.53;;;;;;;14.48;100.00;100935.03;5078520;28;20036;-86
2022/09/08 00:55:51;;;;;;;18.27;8.73;;;;;;;14.48;100.00;100937.72;5096031;28;20103;-85
2022/09/08 00:58:17;;;;;;;19.73;7.55;;;;;;;14.46;100.00;100943.25;5078033;28;20083;-86
2022/09/08 01:00:43;;;;;;;24.85;9.70;;;;;;;14.46;100.00;100938.75;5095872;28;20484;-86
2022/09/08 01:03:11;;;;;;;18.35;8.65;;;;;;;14.44;100.00;100922.00;5077981;28;20471;-89
2022/09/08 01:05:44;;;;;;;22.77;9.60;;;;;;;14.44;100.00;100922.00;5077484;28;20098;-88
2022/09/08 01:14:12;;;;;;;18.55;9.63;;;;;;;14.48;100.00;100935.03;5095995;28;20399;-86
2022/09/08 01:16:41;;;;;;;18.95;10.07;;;;;;;14.47;100.00;100931.53;5061085;28;20032;-86
2022/09/08 01:19:24;;;;;;;23.88;10.77;;;;;;;14.48;100.00;100932.38;5096055;28;20039;-88
2022/09/08 01:22:03;;;;;;;23.13;9.98;;;;;;;14.48;100.00;100937.72;5095366;28;20052;-88
2022/09/08 01:24:37;;;;;;;26.13;10.35;;;;;;;14.46;100.00;100936.06;5095079;28;20024;-88
2022/09/08 01:27:10;;;;;;;20.00;10.15;;;;;;;14.46;100.00;100935.22;5095233;28;20020;-88
2022/09/08 01:29:36;;;;;;;29.70;10.48;;;;;;;14.49;100.00;100937.56;5095361;28;20027;-88
2022/09/08 01:32:04;;;;;;;24.98;10.18;;;;;;;14.52;100.00;100933.72;5077505;28;20036;-88
2022/09/08 01:34:40;;;;;;;21.17;9.85;;;;;;;14.54;100.00;100918.34;5077337;28;20236;-88
2022/09/08 01:37:05;;;;;;;22.10;10.27;;;;;;;14.60;100.00;100920.34;5096552;28;20031;-88
2022/09/08 01:39:31;;;;;;;21.90;10.25;;;;;;;14.66;100.00;100906.38;5095357;28;20028;-88
2022/09/08 01:41:56;;;;;;;24.88;11.45;;;;;;;14.70;100.00;100906.88;5077542;28;20046;-87
2022/09/08 01:44:22;;;;;;;30.20;12.60;;;;;;;14.73;100.00;100919.91;5095273;28;20467;-86
2022/09/08 01:46:48;;;;;;;19.90;11.00;;;;;;;14.76;100.00;100920.44;5077188;28;20023;-86
2022/09/08 01:49:13;;;;;;;20.55;11.07;;;;;;;14.79;100.00;100912.09;5076796;28;20035;-88
2022/09/08 01:51:39;;;;;;;17.33;8.80;;;;;;;14.81;100.00;100914.59;5077066;28;20083;-87
2022/09/08 01:54:04;;;;;;;20.63;10.43;;;;;;;14.81;100.00;100915.41;5076801;28;20043;-87
2022/09/08 01:56:30;;;;;;;22.30;11.20;;;;;;;14.85;100.00;100917.75;5095312;28;20036;-86
2022/09/08 01:58:55;;;;;;;23.17;10.95;;;;;;;14.85;100.00;100907.06;5095308;28;20165;-87
2022/09/08 02:01:20;;;;;;;27.05;11.68;;;;;;;14.87;100.00;100907.72;5095383;28;20043;-87
2022/09/08 02:03:46;;;;;;;24.88;11.95;;;;;;;14.88;100.00;100906.72;5077481;28;20036;-87
2022/09/08 02:06:11;;;;;;;33.15;12.32;;;;;;;14.90;100.00;100910.06;5096089;28;20093;-88
2022/09/08 02:08:37;;;;;;;32.58;12.35;;;;;;;14.94;100.00;100922.13;5096872;28;20031;-87
2022/09/08 02:11:03;;;;;;;24.98;11.40;;;;;;;14.95;100.00;100910.41;5060065;28;20089;-87
2022/09/08 02:13:30;;;;;;;26.95;11.35;;;;;;;14.95;100.00;100910.41;5094662;28;20107;-87
2022/09/08 02:16:03;;;;;;;30.05;12.73;;;;;;;14.96;100.00;100909.41;5094323;28;20056;-88
2022/09/08 02:18:31;;;;;;;28.05;11.73;;;;;;;14.95;100.00;100905.88;5094969;28;20071;-88
2022/09/08 02:21:04;;;;;;;28.85;12.32;;;;;;;14.97;100.00;100906.56;5075933;28;20055;-88
2022/09/08 02:23:29;;;;;;;29.08;12.18;;;;;;;14.99;100.00;100903.72;5077267;28;20375;-88
2022/09/08 02:25:55;;;;;;;28.08;11.35;;;;;;;14.98;100.00;100900.19;5076189;28;20094;-88
2022/09/08 02:28:20;;;;;;;27.27;11.13;;;;;;;15.01;100.00;100898.22;5076301;28;20430;-89
2022/09/08 02:30:46;;;;;;;27.48;11.75;;;;;;;15.01;100.00;100901.72;5076512;28;20047;-88
2022/09/08 02:33:11;;;;;;;23.40;11.80;;;;;;;15.04;100.00;100903.22;5094419;28;20024;-88
2022/09/08 02:35:36;;;;;;;33.70;11.25;;;;;;;15.04;100.00;100903.22;5076056;28;20490;-88
2022/09/08 02:38:02;;;;;;;24.80;10.63;;;;;;;15.04;100.00;100903.22;5075524;28;20032;-89
2022/09/08 02:40:27;;;;;;;26.33;11.80;;;;;;;15.06;100.00;100914.59;5076251;28;20043;-84
2022/09/08 02:42:53;;;;;;;25.55;11.70;;;;;;;15.06;100.00;100901.22;5076654;28;20035;-88
2022/09/08 02:45:18;;;;;;;27.70;11.23;;;;;;;15.07;100.00;100895.69;5094077;28;20074;-87
2022/09/08 02:47:44;;;;;;;26.25;10.88;;;;;;;15.06;100.00;100891.34;5093997;28;20044;-87
2022/09/08 02:50:10;;;;;;;24.05;10.55;;;;;;;15.08;100.00;100893.84;5094377;28;20086;-87
2022/09/08 02:52:36;;;;;;;21.73;9.70;;;;;;;15.07;100.00;100892.19;5093686;28;20032;-89
2022/09/08 02:55:01;;;;;;;21.48;9.65;;;;;;;15.07;100.00;100893.00;5093804;28;20028;-86
2022/09/08 02:57:26;;;;;;;23.42;9.63;;;;;;;15.06;100.00;100883.31;5094145;28;20036;-87
2022/09/08 02:59:52;;;;;;;21.42;9.05;;;;;;;15.06;100.00;100880.63;5093697;28;20032;-89
2022/09/08 03:02:17;;;;;;;25.02;9.00;;;;;;;15.06;100.00;100886.00;5075157;28;20051;-88
2022/09/08 03:04:43;;;;;;;20.20;8.88;;;;;;;15.07;100.00;100884.13;5094142;28;20036;-87
2022/09/08 03:07:08;;;;;;;20.90;9.57;;;;;;;15.06;100.00;100880.63;5093672;28;20066;-87
2022/09/08 03:09:33;;;;;;;25.65;8.23;;;;;;;15.07;100.00;100878.78;5093961;28;20060;-86
2022/09/08 03:11:59;;;;;;;19.77;8.15;;;;;;;15.06;100.00;100879.78;5075811;28;20460;-88
2022/09/08 03:14:24;;;;;;;17.10;7.13;;;;;;;15.05;100.00;100876.25;5093454;28;20028;-87
2022/09/08 03:16:50;;;;;;;27.77;7.97;;;;;;;15.04;100.00;100877.25;5093441;28;20036;-87
2022/09/08 03:19:15;;;;;;;22.25;7.50;;;;;;;15.03;100.00;100867.53;5093991;28;20060;-87
2022/09/08 03:21:41;;;;;;;20.30;6.47;;;;;;;15.02;100.00;100873.94;5093110;28;20055;-87
2022/09/08 03:24:06;;;;;;;14.63;5.78;;;;;;;15.00;100.00;100873.22;5094038;28;20392;-88
2022/09/08 03:26:32;;;;;;;20.10;5.82;;;;;;;14.98;100.00;100876.09;5093486;28;20032;-90
2022/09/08 03:28:57;;;;;;;14.77;6.15;;;;;;;14.97;100.00;100874.44;5093541;28;20029;-87
2022/09/08 03:31:22;;;;;;;14.05;5.82;;;;;;;14.95;100.00;100873.75;5093654;28;20039;-90
2022/09/08 03:33:48;;;;;;;14.32;4.78;;;;;;;14.95;100.00;100878.28;5093493;28;20474;-90
2022/09/08 03:36:15;;;;;;;21.67;5.40;;;;;;;14.91;100.00;100874.25;5093383;28;20040;-88
2022/09/08 03:38:41;;;;;;;18.10;5.20;;;;;;;14.89;100.00;100871.72;5075107;28;20032;-89
2022/09/08 03:41:08;;;;;;;19.98;5.40;;;;;;;14.87;100.00;100870.22;5075300;28;20120;-88
2022/09/08 03:43:35;;;;;;;15.90;5.15;;;;;;;14.83;100.00;100877.75;5092938;28;20029;-87
2022/09/08 03:46:00;;;;;;;17.70;5.50;;;;;;;14.82;100.00;100870.72;5093514;28;20035;-87
2022/09/08 03:48:25;;;;;;;16.00;5.50;;;;;;;14.80;100.00;100873.56;5094096;28;20032;-87
2022/09/08 03:50:51;;;;;;;17.75;5.32;;;;;;;14.78;100.00;100867.53;5097376;28;20074;-88
2022/09/08 03:53:17;;;;;;;15.77;5.70;;;;;;;14.77;100.00;100873.91;5079116;28;20115;-88
2022/09/08 03:55:42;;;;;;;14.60;5.63;;;;;;;14.78;100.00;100872.06;5097356;28;20456;-86
2022/09/08 03:58:09;;;;;;;13.07;5.88;;;;;;;14.80;100.00;100875.41;5079059;28;20031;-87
2022/09/08 04:00:35;;;;;;;21.08;6.40;;;;;;;14.81;100.00;100879.78;5097558;28;20024;-88
2022/09/08 04:03:00;;;;;;;17.58;6.13;;;;;;;14.81;100.00;100869.06;5079176;28;20050;-87
2022/09/08 04:05:26;;;;;;;17.63;5.90;;;;;;;14.82;100.00;100873.38;5078911;28;20058;-87
2022/09/08 04:07:51;;;;;;;18.05;6.13;;;;;;;14.80;100.00;100876.25;5097000;28;20032;-88
2022/09/08 04:10:19;;;;;;;18.73;6.70;;;;;;;14.81;100.00;100875.25;5078568;28;20024;-87
2022/09/08 04:12:44;;;;;;;19.05;6.38;;;;;;;14.81;100.00;100877.09;5097347;28;20024;-87
2022/09/08 04:15:10;;;;;;;19.00;6.25;;;;;;;14.81;100.00;100877.91;5097489;28;20539;-85
2022/09/08 04:17:35;;;;;;;13.95;7.32;;;;;;;14.80;100.00;100876.25;5096962;28;20063;-87
2022/09/08 04:20:02;;;;;;;31.00;7.53;;;;;;;14.79;100.00;100871.91;5096794;28;20388;-88
2022/09/08 04:22:27;;;;;;;20.23;7.10;;;;;;;14.79;100.00;100869.22;5098268;28;20133;-86
2022/09/08 04:24:53;;;;;;;18.23;7.03;;;;;;;14.80;100.00;100868.19;5096780;28;20040;-88
2022/09/08 04:27:19;;;;;;;17.65;7.38;;;;;;;14.76;100.00;100861.53;5096661;28;20468;-89
2022/09/08 04:29:44;;;;;;;22.00;7.55;;;;;;;14.75;100.00;100856.31;5096839;28;20454;-89
2022/09/08 04:32:10;;;;;;;21.10;7.80;;;;;;;14.74;100.00;100863.50;5098161;28;20043;-90
2022/09/08 04:34:36;;;;;;;22.33;7.60;;;;;;;14.73;100.00;100864.50;5096692;28;20032;-88
2022/09/08 04:37:03;;;;;;;21.45;7.75;;;;;;;14.71;100.00;100863.84;5096791;28;20043;-90
2022/09/08 04:39:28;;;;;;;25.75;8.43;;;;;;;14.72;100.00;100854.81;5078519;28;20039;-88
2022/09/08 04:41:54;;;;;;;21.25;8.43;;;;;;;14.73;100.00;100855.66;5096504;28;20032;-87
2022/09/08 04:44:20;;;;;;;20.60;8.60;;;;;;;14.71;100.00;100855.81;5096393;28;20036;-87
2022/09/08 04:46:45;;;;;;;21.77;8.02;;;;;;;14.70;100.00;100850.63;5078117;28;20483;-87
2022/09/08 04:49:10;;;;;;;24.33;8.20;;;;;;;14.69;100.00;100856.97;5096309;28;20028;-90
2022/09/08 04:51:36;;;;;;;22.38;8.15;;;;;;;14.70;100.00;100864.00;5096152;28;20034;-89
2022/09/08 04:54:04;;;;;;;18.50;8.43;;;;;;;14.71;100.00;100860.34;5096326;28;20445;-90
2022/09/08 04:56:30;;;;;;;20.33;8.43;;;;;;;14.71;100.00;100855.81;5096469;28;20024;-88
2022/09/08 04:58:58;;;;;;;23.40;9.05;;;;;;;14.70;100.00;100853.31;5078281;28;20131;-89
2022/09/08 05:01:30;;;;;;;25.10;9.20;;;;;;;14.71;100.00;100861.16;5094936;28;20074;-89
2022/09/08 05:04:01;;;;;;;21.85;8.77;;;;;;;14.72;100.00;100864.69;5096683;28;20024;-87
2022/09/08 05:06:29;;;;;;;18.75;9.02;;;;;;;14.72;100.00;100862.84;5096351;28;20361;-88
2022/09/08 05:08:56;;;;;;;22.35;9.50;;;;;;;14.71;100.00;100860.34;5095917;28;20057;-87
2022/09/08 05:11:23;;;;;;;27.13;9.32;;;;;;;14.70;100.00;100867.53;5077446;28;20020;-86
2022/09/08 05:13:49;;;;;;;22.83;8.82;;;;;;;14.72;100.00;100864.69;5095956;28;20063;-88
2022/09/08 05:16:17;;;;;;;17.58;8.70;;;;;;;14.70;100.00;100861.34;5096621;28;20451;-88
2022/09/08 05:18:47;;;;;;;22.42;8.13;;;;;;;14.70;100.00;100867.53;5077774;28;20104;-90
2022/09/08 05:21:13;;;;;;;15.90;8.20;;;;;;;14.68;100.00;100866.84;5095564;28;20059;-88
2022/09/08 05:23:38;;;;;;;18.75;7.78;;;;;;;14.66;100.00;100863.53;5095735;28;20032;-82
2022/09/08 05:26:06;;;;;;;21.20;8.20;;;;;;;14.66;100.00;100860.84;5095497;28;20435;-81
2022/09/08 05:28:38;;;;;;;23.38;9.02;;;;;;;14.64;100.00;100860.16;5095390;28;20047;-78
2022/09/08 05:31:04;;;;;;;;;;;;;;;14.63;100.00;100858.50;5095815;28;20056;-81
2022/09/08 05:33:29;;;;;;;21.73;10.30;;;;;;;14.62;100.00;100848.78;5077247;28;20382;-84
2022/09/08 05:35:55;;;;;;;19.83;10.20;;;;;;;14.62;100.00;100856.81;5060509;28;20059;-81
2022/09/08 05:38:20;;;;;;;22.60;10.40;;;;;;;14.61;100.00;100855.13;5095509;28;20115;-84
2022/09/08 05:40:46;;;;;;;25.77;11.18;;;;;;;14.62;100.00;100851.47;5077331;28;20066;-83
2022/09/08 05:43:16;;;;;;;25.98;10.77;;;;;;;14.65;100.00;100852.97;5095013;28;20364;-83
2022/09/08 05:45:46;;;;;;;18.38;10.23;;;;;;;14.62;100.00;100846.94;5095222;28;20032;-84
2022/09/08 05:48:11;;;;;;;23.15;11.95;;;;;;;14.62;100.00;100852.28;5076985;28;20047;-87
2022/09/08 05:50:37;;;;;;;22.65;11.32;;;;;;;14.61;100.00;100844.41;5095184;28;20032;-85
2022/09/08 05:53:02;;;;;;;23.05;11.52;;;;;;;14.62;100.00;100846.94;5077064;28;20032;-88
2022/09/08 05:55:28;;;;;;;22.27;11.55;;;;;;;14.61;100.00;100850.63;5095835;28;20376;-88
2022/09/08 05:57:55;;;;;;;22.67;11.30;;;;;;;14.62;100.00;100843.44;5094960;28;20028;-87
2022/09/08 06:00:21;;;;;;;19.17;10.60;;;;;;;14.60;100.00;100843.56;5094948;28;20106;-86
2022/09/08 06:02:52;;;;;;;20.30;10.52;;;;;;;14.61;100.00;100844.41;5094996;28;20143;-87
2022/09/08 06:05:19;;;;;;;23.20;10.02;;;;;;;14.61;100.00;100842.59;5094904;28;20058;-86
2022/09/08 06:07:46;;;;;;;17.20;7.75;;;;;;;14.58;100.00;100842.03;5094698;28;20063;-88
2022/09/08 06:10:12;;;;;;;19.92;7.90;;;;;;;14.53;100.00;100847.06;5094970;28;20121;-84
2022/09/08 06:12:37;;;;;;;19.58;7.65;;;;;;;14.51;100.00;100846.38;5076368;28;20084;-89
2022/09/08 06:15:03;;;;;;;15.02;8.50;;;;;;;14.51;100.00;100852.59;5094319;28;20036;-88
2022/09/08 06:17:29;;;;;;;13.70;8.20;;;;;;;14.54;100.00;100852.25;5094732;28;20024;-85
2022/09/08 06:19:55;;;;;;;19.23;8.05;;;;;;;14.56;100.00;100857.44;5076783;28;20387;-88
2022/09/08 06:22:20;;;;;;;16.67;8.73;;;;;;;14.57;100.00;100845.72;5073172;28;20052;-87
2022/09/08 06:24:46;;;;;;;20.95;9.52;;;;;;;14.57;100.00;100851.06;5074474;28;20112;-88
2022/09/08 06:27:27;;;;;;;17.00;9.57;;;;;;;14.59;100.00;100847.22;5074316;28;20115;-87
2022/09/08 06:30:04;;;;;;;20.23;10.20;;;;;;;14.62;100.00;100852.28;5073141;28;20451;-88
2022/09/08 06:32:38;;;;;;;16.38;9.00;;;;;;;14.66;100.00;100842.09;5074570;28;20036;-87
2022/09/08 06:35:10;;;;;;;17.45;9.63;;;;;;;14.68;100.00;100845.44;5074613;28;20033;-88
2022/09/08 06:38:04;;;;;;;22.42;9.48;;;;;;;14.73;100.00;100845.75;5074236;28;20034;-89
2022/09/08 06:40:45;;;;;;;19.85;10.23;;;;;;;14.76;100.00;100853.50;5073614;28;20036;-90
2022/09/08 06:43:24;;;;;;;16.92;9.82;;;;;;;14.80;100.00;100853.97;5073958;28;20174;-91
2022/09/08 06:45:52;;;;;;;21.52;10.02;;;;;;;14.87;100.00;100854.13;5073306;28;20528;-88
2022/09/08 06:48:30;;;;;;;18.45;9.75;;;;;;;14.89;100.00;100847.63;5073749;28;20029;-88
2022/09/08 06:51:20;;;;;;;18.33;9.57;;;;;;;14.93;100.00;100850.81;5075059;28;20064;-87
2022/09/08 06:54:21;;;;;;;19.60;10.93;;;;;;;14.96;100.00;100850.47;5073146;28;20032;-86
2022/09/08 06:56:55;;;;;;;25.48;12.23;;;;;;;15.00;100.00;100849.13;5072211;28;20056;-88
2022/09/08 06:59:32;;;;;;;29.13;13.20;;;;;;;15.06;100.00;100852.97;5073897;28;20056;-91
2022/09/08 07:02:36;;;;;;;26.58;13.98;;;;;;;15.11;100.00;100850.66;5075490;28;20033;-86
2022/09/08 07:05:26;;;;;;;29.77;14.65;;;;;;;15.15;100.00;100846.59;5070324;28;20047;-90
2022/09/08 07:07:52;;;;;;;27.02;14.52;;;;;;;15.19;100.00;100855.16;5072027;28;20062;-91
2022/09/08 07:10:27;;;;;;;28.92;15.20;;;;;;;15.21;100.00;100855.81;5072216;28;20060;-89
2022/09/08 07:13:18;;;;;;;30.15;16.17;;;;;;;15.25;100.00;100857.16;5072243;28;20362;-87
2022/09/08 07:15:52;;;;;;;30.00;16.10;;;;;;;15.30;100.00;100855.66;5073609;28;20020;-87
2022/09/08 07:18:25;;;;;;;33.92;17.15;;;;;;;15.35;100.00;100857.81;5073436;28;20031;-87
2022/09/08 07:21:03;;;;;;;34.65;16.95;;;;;;;15.44;100.00;100867.50;5078438;28;20040;-88
2022/09/08 07:23:33;;;;;;;30.48;17.60;;;;;;;15.50;100.00;100866.81;5092557;28;20019;-90
2022/09/08 07:26:15;;;;;;;26.73;15.73;;;;;;;15.55;100.00;100862.81;5093824;28;20028;-87
2022/09/08 07:28:46;;;;;;;27.45;15.07;;;;;;;15.54;100.00;100871.84;5075307;28;20024;-85
2022/09/08 07:31:20;;;;;;;25.92;14.55;;;;;;;15.55;100.00;100860.13;5093600;28;20028;-84
2022/09/08 07:33:51;;;;;;;25.75;14.57;;;;;;;15.60;100.00;100857.75;5093085;28;20047;-86
2022/09/08 07:36:39;;;;;;;18.02;12.35;;;;;;;15.57;100.00;100866.13;5093243;28;20135;-88
2022/09/08 07:39:38;;;;;;;21.15;12.98;;;;;;;15.68;100.00;100863.09;5093258;28;20024;-85
2022/09/08 07:42:10;;;;;;;21.92;11.95;;;;;;;15.67;100.00;100861.41;5093424;28;20039;-85
2022/09/08 07:44:37;;;;;;;17.10;11.38;;;;;;;15.72;100.00;100859.09;5093339;28;20024;-86
2022/09/08 07:47:27;;;;;;;20.67;11.82;;;;;;;15.74;100.00;100857.03;5058829;28;20032;-87
2022/09/08 07:50:12;;;;;;;18.55;10.70;;;;;;;15.78;100.00;100855.72;5076073;28;20035;-85
2022/09/08 07:52:53;;;;;;;15.55;10.45;;;;;;;15.80;100.00;100856.38;5075772;28;20036;-86
2022/09/08 07:55:37;;;;;;;12.70;9.68;;;;;;;15.86;100.00;100852.19;5075966;28;20114;-88
2022/09/08 07:58:33;;;;;;;13.73;9.23;;;;;;;15.80;100.00;100853.69;5093538;28;20464;-86
2022/09/08 08:01:36;;;;;;;13.45;8.30;;;;;;;15.72;100.00;100843.00;5075374;28;20543;-84
2022/09/08 08:04:33;;;;;;;12.45;8.70;;;;;;;15.71;100.00;100856.56;5075320;28;20421;-84
2022/09/08 08:07:04;;;;;;;14.48;9.05;;;;;;;15.75;100.00;100852.50;5093057;28;20024;-85
2022/09/08 08:09:32;;;;;;;;;;;;;;;15.86;100.00;100861.06;5093425;28;20077;-83
2022/09/08 08:12:14;;;;;;;9.35;4.78;;;;;;;15.91;100.00;100857.03;5093484;28;19999;-85
2022/09/08 08:14:47;;;;;;;7.05;4.50;;;;;;;16.06;100.00;100866.00;5093411;28;20028;-82
2022/09/08 08:17:13;;;;;;;7.72;2.58;;;;;;;16.15;100.00;100864.13;5092889;28;20032;-83
2022/09/08 08:19:45;;;;;;;7.13;2.33;;;;;;;16.26;100.00;100862.88;5092815;28;20085;-83
2022/09/08 08:22:23;;;;;;;6.50;2.05;;;;;;;16.36;100.00;100850.94;5074954;28;20052;-83
2022/09/08 08:25:33;;;;;;;5.10;2.13;;;;;;;16.37;100.00;100854.44;5074989;28;20031;-84
2022/09/08 08:28:19;;;;;;;5.93;2.40;;;;;;;16.44;100.00;100855.41;5051903;28;20036;-83
2022/09/08 08:30:57;;;;;;;3.97;2.30;;;;;;;16.77;100.00;100870.50;5093071;28;20028;-85
2022/09/08 08:33:29;;;;;;;6.13;2.30;;;;;;;17.10;100.00;100873.78;5092565;28;20149;-83
2022/09/08 08:36:04;;;;;;;9.75;2.70;;;;;;;17.42;100.00;100875.34;5077925;28;20024;-83
2022/09/08 08:38:38;;;;;;;6.43;2.45;;;;;;;17.88;100.00;100860.84;5096687;28;20031;-81
2022/09/08 08:41:13;;;;;;;6.00;2.10;;;;;;;18.64;100.00;100863.22;5096955;28;20032;-84
2022/09/08 08:43:52;;;;;;;5.07;1.88;;;;;;;19.30;100.00;100862.19;5096449;28;20024;-83
2022/09/08 08:46:29;;;;;;;5.45;1.92;;;;;;;19.87;100.00;100856.75;5077905;28;20062;-83
2022/09/08 08:49:01;;;;;;;4.05;1.63;;;;;;;20.66;99.30;100860.81;5078931;28;20410;-81
2022/09/08 08:51:50;;;;;;;4.15;1.83;;;;;;;21.13;99.70;100864.38;5096609;28;20085;-86
2022/09/08 08:54:28;;;;;;;3.22;1.75;;;;;;;20.88;96.58;100864.13;5064307;28;20468;-84
2022/09/08 08:57:21;;;;;;;4.55;2.30;;;;;;;20.31;96.45;100877.09;5079971;28;20361;-83
2022/09/08 08:59:52;;;;;;;5.93;2.80;;;;;;;19.88;100.00;100874.63;5097611;28;20028;-83
2022/09/08 09:02:29;;;;;;;;;;;;;;;20.67;100.00;100869.75;5096900;28;20028;-83
2022/09/08 09:04:58;;;;;;;4.85;3.00;;;;;;;22.22;88.92;100868.53;5078897;28;19915;-87
2022/09/08 09:07:48;;;;;;;6.28;2.45;;;;;;;24.04;79.36;100858.72;5096322;28;20535;-91
2022/09/08 09:10:35;;;;;;;4.07;2.07;;;;;;;25.37;66.58;100857.81;5096818;28;20035;-85
2022/09/08 09:13:30;;;;;;;7.22;1.85;;;;;;;25.08;67.26;100868.53;5096370;28;20338;-87
2022/09/08 09:16:45;;;;;;;8.73;2.03;;;;;;;23.88;67.57;100866.41;5096230;28;20130;-87
2022/09/08 09:19:25;;;;;;;6.60;2.20;;;;;;;22.31;79.33;100864.50;5095714;28;20091;-90
2022/09/08 09:22:06;;;;;;;6.70;2.30;;;;;;;23.21;73.18;100866.25;5096389;28;20060;-90
2022/09/08 09:25:09;;;;;;;9.15;2.30;;;;;;;24.57;65.29;100868.88;5096793;28;20020;-85
2022/09/08 09:27:44;;;;;;;2.67;1.90;;;;;;;25.34;62.95;100857.22;5096375;28;20031;-85
2022/09/08 09:30:20;;;;;;;3.20;1.67;;;;;;;26.01;61.35;100864.13;5096553;28;20035;-88
2022/09/08 09:33:26;;;;;;;5.50;2.75;;;;;;;26.40;57.08;100858.06;5096106;28;20036;-90
2022/09/08 09:36:14;;;;;;;5.28;1.90;;;;;;;26.39;55.80;100859.13;5096501;28;20028;-90
2022/09/08 09:38:56;;;;;;;10.18;2.58;;;;;;;26.65;55.09;100859.59;5094761;28;20047;-91
2022/09/08 09:41:46;;;;;;;6.35;2.28;;;;;;;26.72;55.92;100863.03;5095649;28;20066;-90
2022/09/08 09:44:26;;;;;;;6.40;2.70;;;;;;;26.68;54.06;100859.16;5077745;28;20036;-87
2022/09/08 09:47:15;;;;;;;6.25;2.40;;;;;;;26.25;53.57;100861.34;5077179;28;20123;-88
2022/09/08 09:50:01;;;;;;;8.45;2.60;;;;;;;24.59;61.09;100863.25;5077637;28;20028;-89
2022/09/08 09:52:34;;;;;;;9.18;2.95;;;;;;;22.65;65.96;100866.00;5095098;28;20047;-85
2022/09/08 09:55:18;;;;;;;5.50;2.55;;;;;;;21.61;73.90;100860.59;5095147;28;20042;-84
2022/09/08 09:57:44;;;;;;;5.78;2.85;;;;;;;20.89;78.45;100860.41;5077404;28;20032;-83
2022/09/08 10:00:19;;;;;;;5.55;2.70;;;;;;;22.17;73.65;100861.03;5076721;28;20121;-85
2022/09/08 10:03:03;;;;;;;6.95;2.72;;;;;;;22.98;68.83;100861.41;5077304;28;20123;-83
2022/09/08 10:06:05;;;;;;;8.05;3.22;;;;;;;22.52;72.21;100863.38;5077171;28;20384;-82
2022/09/08 10:09:16;;;;;;;9.52;2.55;;;;;;;21.97;74.12;100861.13;5094829;28;20028;-86
2022/09/08 10:11:55;;;;;;;6.30;2.35;;;;;;;21.51;78.10;100864.78;5095019;28;20033;-85
2022/09/08 10:14:59;;;;;;;7.43;2.45;;;;;;;22.97;69.74;100865.97;5094937;28;20471;-82
2022/09/08 10:17:42;;;;;;;6.85;2.40;;;;;;;22.45;69.08;100858.00;5094558;28;20028;-85
2022/09/08 10:20:34;;;;;;;9.13;2.30;;;;;;;21.72;73.59;100866.41;5094932;28;20103;-85
2022/09/08 10:23:09;;;;;;;7.53;2.20;;;;;;;21.21;76.29;100867.91;5094772;28;20498;-87
2022/09/08 10:25:50;;;;;;;6.40;2.38;;;;;;;22.42;71.66;100858.41;5094878;28;20122;-83
2022/09/08 10:28:34;;;;;;;6.03;2.67;;;;;;;23.80;61.58;100863.16;5094350;28;20464;-82
2022/09/08 10:31:41;;;;;;;6.72;2.47;;;;;;;25.08;55.96;100861.22;5094478;28;20089;-82
2022/09/08 10:34:28;;;;;;;7.68;2.45;;;;;;;24.85;55.63;100861.19;5093778;28;20032;-83
2022/09/08 10:37:03;;;;;;;6.20;2.58;;;;;;;25.52;56.81;100855.44;5094151;28;20024;-79
2022/09/08 10:39:53;;;;;;;6.45;2.50;;;;;;;26.74;52.02;100866.34;5094075;28;20051;-81
2022/09/08 10:42:36;;;;;;;8.30;2.53;;;;;;;27.54;47.81;100861.59;5094477;28;20040;-80
2022/09/08 10:45:17;;;;;;;10.52;2.35;;;;;;;27.54;51.37;100858.88;5093654;28;20570;-79
2022/09/08 10:48:27;;;;;;;8.98;2.40;;;;;;;26.90;50.97;100867.41;5093602;28;20032;-79
2022/09/08 10:51:00;;;;;;;5.97;2.40;;;;;;;26.57;49.49;100860.81;5055044;28;20411;-84
2022/09/08 10:54:14;;;;;;;5.72;2.45;;;;;;;25.77;50.72;100862.53;5094072;28;20035;-83
2022/09/08 10:56:41;;;;;;;5.20;2.30;;;;;;;25.00;52.88;100861.53;5015758;28;20388;-78
2022/09/08 10:59:19;;;;;;;6.97;2.42;;;;;;;25.54;54.43;100857.91;5074632;28;20143;-78
2022/09/08 11:02:12;;;;;;;8.30;2.88;;;;;;;25.15;56.00;100866.53;5093572;28;20459;-80
2022/09/08 11:04:59;;;;;;;6.25;2.08;;;;;;;25.48;51.93;100857.81;5093373;28;20536;-78
2022/09/08 11:08:01;;;;;;;14.52;2.67;;;;;;;24.87;53.59;100873.50;5093682;28;20035;-83
2022/09/08 11:10:29;;;;;;;12.00;3.03;;;;;;;24.09;54.32;100877.88;5093567;28;20024;-80
2022/09/08 11:13:28;;;;;;;13.18;2.67;;;;;;;23.45;58.67;100861.84;5093341;28;20026;-80
2022/09/08 11:16:18;;;;;;;8.60;2.67;;;;;;;23.06;62.30;100864.69;5093626;28;20032;-79
2022/09/08 11:18:43;;;;;;;8.63;2.53;;;;;;;23.38;60.17;100869.22;5093656;28;20031;-80
2022/09/08 11:21:38;;;;;;;6.32;2.28;;;;;;;23.48;60.36;100866.00;5093050;28;20040;-80
2022/09/08 11:24:23;;;;;;;7.88;2.35;;;;;;;23.94;58.06;100861.97;5093925;28;20024;-81
2022/09/08 11:26:57;;;;;;;5.95;2.30;;;;;;;23.20;59.26;100859.16;5094201;28;20028;-81
2022/09/08 11:29:30;;;;;;;11.77;2.53;;;;;;;22.77;63.82;100858.00;5075689;28;20073;-81
2022/09/08 11:32:15;;;;;;;5.32;2.22;;;;;;;22.14;61.37;100848.75;5093479;28;20032;-80
2022/09/08 11:35:01;;;;;;;9.57;2.45;;;;;;;21.73;66.36;100851.81;5093277;28;20075;-79
2022/09/08 11:37:35;;;;;;;9.85;2.30;;;;;;;21.08;68.27;100853.34;5092797;28;20431;-82
2022/09/08 11:40:19;;;;;;;12.98;2.97;;;;;;;20.63;69.95;100866.59;5093322;28;20031;-82
2022/09/08 11:42:47;;;;;;;7.13;2.33;;;;;;;21.11;69.60;100862.94;5093590;28;20028;-80
2022/09/08 11:45:34;;;;;;;16.08;2.70;;;;;;;22.57;64.91;100849.16;5093169;28;20032;-84
2022/09/08 11:48:30;;;;;;;7.85;2.60;;;;;;;23.85;59.84;100847.00;5092810;28;20020;-81